Tumwater, Washington
Current Conditions -  °F | °C
As of 7:54 AM on Thursday 30 Oct 2014 (Local Time) from KOLM Reporting Station
Light Rain Light Rain  
Wind Chill: 52°   Ceiling: 6000
Heat Index: 52°   Visibility: 9mi
Dew Point: 51°   Wind: 7mph
Humidity: 97%   Direction: 240°WSW
Pressure: 29.88"   Gusts: NA
Location:  47.038°N, 122.899°W
Report Text: KOLM 301454Z 24006KT 9SM -RA BKN060 OVC080 11/11 A2988 RMK AO2 PRESRR SLP119 P0001 60002 T01110106 55012
Loading
Personal Weather Stations






























Interactive Weather Map
Tropical Storm Tracking
New forecast layout! Learn more

10-Day Weather Forecast

Advertisements
Track Severe Weather on mobile